createdAt,value
2017-01-13T00:00:45.547Z,0
2017-01-13T00:01:45.886Z,0
2017-01-13T00:02:44.691Z,0
2017-01-13T00:03:45.806Z,0
2017-01-13T00:04:45.770Z,0
2017-01-13T00:05:45.349Z,0
2017-01-13T00:06:45.688Z,0
2017-01-13T00:07:45.254Z,0
2017-01-13T00:08:45.603Z,0
2017-01-13T00:09:45.568Z,0
2017-01-13T00:10:46.083Z,0
2017-01-13T00:11:45.488Z,0
2017-01-13T00:12:45.053Z,0
2017-01-13T00:13:44.630Z,0
2017-01-13T00:14:45.387Z,0
2017-01-13T00:15:44.571Z,0
2017-01-13T00:16:45.284Z,0
2017-01-13T00:17:44.857Z,0
2017-01-13T00:18:45.202Z,0
2017-01-13T00:19:44.773Z,0
2017-01-13T00:20:45.115Z,0
2017-01-13T00:21:44.696Z,0
2017-01-13T00:22:45.034Z,0
2017-01-13T00:23:44.231Z,0
2017-01-13T00:24:44.955Z,0
2017-01-13T00:25:44.144Z,0
2017-01-13T00:26:44.497Z,0
2017-01-13T00:27:44.451Z,0
2017-01-13T00:28:44.019Z,0
2017-01-13T00:29:44.372Z,0
2017-01-13T00:30:44.722Z,0
2017-01-13T00:31:44.285Z,0
2017-01-13T00:32:44.244Z,0
2017-01-13T00:33:44.587Z,0
2017-01-13T00:34:44.549Z,0
2017-01-13T00:35:44.122Z,0
2017-01-13T00:36:44.085Z,0
2017-01-13T00:37:44.428Z,0
2017-01-13T00:38:44.386Z,0
2017-01-13T00:39:43.960Z,0
2017-01-13T00:40:43.919Z,0
2017-01-13T00:41:43.907Z,0
2017-01-13T00:42:43.840Z,0
2017-01-13T00:43:43.799Z,0
2017-01-13T00:44:44.145Z,0
2017-01-13T00:45:43.717Z,0
2017-01-13T00:46:44.068Z,0
2017-01-13T00:47:43.633Z,0
2017-01-13T00:48:43.983Z,0
2017-01-13T00:49:43.949Z,0
2017-01-13T00:50:43.898Z,0
2017-01-13T00:51:43.479Z,0
2017-01-13T00:52:43.821Z,0
2017-01-13T00:53:43.780Z,0
2017-01-13T00:54:43.737Z,0
2017-01-13T00:55:43.318Z,0
2017-01-13T00:56:43.674Z,0
2017-01-13T00:57:43.255Z,0
2017-01-13T00:58:43.714Z,0
2017-01-13T00:59:42.776Z,0
2017-01-13T01:00:43.111Z,0
2017-01-13T01:01:43.464Z,0
2017-01-13T01:02:42.645Z,0
2017-01-13T01:03:42.603Z,0
2017-01-13T01:04:42.971Z,0
2017-01-13T01:05:43.307Z,0
2017-01-13T01:06:42.484Z,0
2017-01-13T01:07:43.228Z,0
2017-01-13T01:08:42.791Z,0
2017-01-13T01:09:42.745Z,0
2017-01-13T01:10:42.710Z,0
2017-01-13T01:11:43.062Z,0
2017-01-13T01:12:42.642Z,0
2017-01-13T01:13:42.602Z,0
2017-01-13T01:14:42.548Z,0
2017-01-13T01:15:42.504Z,0
2017-01-13T01:16:42.084Z,0
2017-01-13T01:17:42.426Z,0
2017-01-13T01:18:42.783Z,0
2017-01-13T01:19:42.764Z,0
2017-01-13T01:20:42.692Z,0
2017-01-13T01:21:42.306Z,0
2017-01-13T01:22:42.223Z,0
2017-01-13T01:23:42.184Z,0
2017-01-13T01:24:41.759Z,0
2017-01-13T01:25:42.108Z,0
2017-01-13T01:26:41.682Z,0
2017-01-13T01:27:41.637Z,0
2017-01-13T01:28:42.391Z,0
2017-01-13T01:29:41.584Z,0
2017-01-13T01:30:41.905Z,0
2017-01-13T01:31:41.479Z,0
2017-01-13T01:32:41.467Z,0
2017-01-13T01:33:41.401Z,0
2017-01-13T01:34:42.124Z,0
2017-01-13T01:35:41.317Z,0
2017-01-13T01:36:40.893Z,0
2017-01-13T01:37:41.615Z,0
2017-01-13T01:38:41.975Z,0
2017-01-13T01:39:41.546Z,0
2017-01-13T01:40:41.878Z,0
2017-01-13T01:41:41.462Z,0
2017-01-13T01:42:41.825Z,0
2017-01-13T01:43:41.380Z,0
2017-01-13T01:44:40.960Z,0
2017-01-13T01:45:40.916Z,0
2017-01-13T01:46:41.262Z,0
2017-01-13T01:47:41.214Z,0
2017-01-13T01:48:40.806Z,0
2017-01-13T01:49:41.523Z,0
2017-01-13T01:50:41.478Z,0
2017-01-13T01:51:41.438Z,0
2017-01-13T01:52:41.397Z,0
2017-01-13T01:53:40.970Z,0
2017-01-13T01:54:40.931Z,0
2017-01-13T01:55:40.914Z,0
2017-01-13T01:56:41.241Z,0
2017-01-13T01:57:40.432Z,0
2017-01-13T01:58:41.160Z,0
2017-01-13T01:59:41.111Z,0
2017-01-13T02:00:41.073Z,0
2017-01-13T02:01:40.264Z,0
2017-01-13T02:02:40.221Z,0
2017-01-13T02:03:40.567Z,0
2017-01-13T02:04:40.524Z,0
2017-01-13T02:05:40.867Z,0
2017-01-13T02:06:40.446Z,0
2017-01-13T02:07:40.786Z,0
2017-01-13T02:08:40.366Z,0
2017-01-13T02:09:40.328Z,0
2017-01-13T02:10:40.712Z,0
2017-01-13T02:11:40.622Z,0
2017-01-13T02:12:40.212Z,0
2017-01-13T02:13:40.164Z,0
2017-01-13T02:14:40.501Z,0
2017-01-13T02:15:39.697Z,0
2017-01-13T02:16:40.421Z,0
2017-01-13T02:17:40.004Z,0
2017-01-13T02:18:40.366Z,0
2017-01-13T02:19:39.910Z,0
2017-01-13T02:20:40.260Z,0
2017-01-13T02:21:40.219Z,0
2017-01-13T02:22:40.182Z,0
2017-01-13T02:23:39.372Z,0
2017-01-13T02:24:40.101Z,0
2017-01-13T02:25:39.671Z,0
2017-01-13T02:26:39.248Z,0
2017-01-13T02:27:39.981Z,0
2017-01-13T02:28:39.546Z,0
2017-01-13T02:29:39.503Z,0
2017-01-13T02:30:39.856Z,0
2017-01-13T02:31:39.813Z,0
2017-01-13T02:32:39.010Z,0
2017-01-13T02:33:39.736Z,0
2017-01-13T02:34:38.924Z,0
2017-01-13T02:35:39.262Z,0
2017-01-13T02:36:39.220Z,0
2017-01-13T02:37:39.182Z,0
2017-01-13T02:38:39.140Z,0
2017-01-13T02:39:39.099Z,0
2017-01-13T02:40:39.447Z,0
2017-01-13T02:41:39.404Z,0
2017-01-13T02:42:38.205Z,0
2017-01-13T02:43:38.943Z,0
2017-01-13T02:44:39.278Z,0
2017-01-13T02:45:39.244Z,0
2017-01-13T02:46:39.198Z,0
2017-01-13T02:47:39.167Z,0
2017-01-13T02:48:38.729Z,0
2017-01-13T02:49:38.306Z,0
2017-01-13T02:50:38.654Z,0
2017-01-13T02:51:38.611Z,0
2017-01-13T02:52:38.951Z,0
2017-01-13T02:53:38.524Z,0
2017-01-13T02:54:38.503Z,0
2017-01-13T02:55:38.058Z,0
2017-01-13T02:56:38.404Z,0
2017-01-13T02:57:38.746Z,0
2017-01-13T02:58:38.706Z,0
2017-01-13T02:59:38.282Z,0
2017-01-13T03:00:38.261Z,0
2017-01-13T03:01:38.199Z,0
2017-01-13T03:02:38.151Z,0
2017-01-13T03:03:37.731Z,0
2017-01-13T03:04:38.076Z,0
2017-01-13T03:05:38.047Z,0
2017-01-13T03:06:37.607Z,0
2017-01-13T03:07:37.951Z,0
2017-01-13T03:08:38.297Z,0
2017-01-13T03:09:37.868Z,0
2017-01-13T03:10:38.214Z,0
2017-01-13T03:11:37.789Z,0
2017-01-13T03:12:37.369Z,0
2017-01-13T03:13:37.707Z,0
2017-01-13T03:14:37.660Z,0
2017-01-13T03:15:37.615Z,0
2017-01-13T03:16:37.578Z,0
2017-01-13T03:17:37.916Z,0
2017-01-13T03:18:37.500Z,0
2017-01-13T03:19:37.842Z,0
2017-01-13T03:20:36.645Z,0
2017-01-13T03:21:36.985Z,0
2017-01-13T03:22:37.724Z,0
2017-01-13T03:23:37.667Z,0
2017-01-13T03:24:37.642Z,0
2017-01-13T03:25:37.593Z,0
2017-01-13T03:26:37.553Z,0
2017-01-13T03:27:36.739Z,0
2017-01-13T03:28:37.462Z,0
2017-01-13T03:29:37.429Z,0
2017-01-13T03:30:37.004Z,0
2017-01-13T03:31:36.956Z,0
2017-01-13T03:32:36.924Z,0
2017-01-13T03:33:36.500Z,0
2017-01-13T03:34:37.218Z,0
2017-01-13T03:35:36.792Z,0
2017-01-13T03:36:36.368Z,0
2017-01-13T03:37:36.711Z,0
2017-01-13T03:38:37.052Z,0
2017-01-13T03:39:37.129Z,0
2017-01-13T03:40:35.428Z,0
2017-01-13T03:41:36.540Z,0
2017-01-13T03:42:36.502Z,0
2017-01-13T03:43:36.847Z,0
2017-01-13T03:44:36.052Z,0
2017-01-13T03:45:36.771Z,0
2017-01-13T03:46:35.954Z,0
2017-01-13T03:47:36.295Z,0
2017-01-13T03:48:36.251Z,0
2017-01-13T03:49:36.595Z,0
2017-01-13T03:50:36.553Z,0
2017-01-13T03:51:36.516Z,0
2017-01-13T03:52:35.313Z,0
2017-01-13T03:53:36.430Z,0
2017-01-13T03:54:36.001Z,0
2017-01-13T03:55:36.353Z,0
2017-01-13T03:56:35.921Z,0
2017-01-13T03:57:36.263Z,0
2017-01-13T03:58:35.068Z,0
2017-01-13T03:59:35.794Z,0
2017-01-13T04:00:35.752Z,0
2017-01-13T04:01:35.755Z,0
2017-01-13T04:02:36.064Z,0
2017-01-13T04:03:36.017Z,0
2017-01-13T04:04:34.812Z,0
2017-01-13T04:05:35.549Z,0
2017-01-13T04:06:35.510Z,0
2017-01-13T04:07:35.104Z,0
2017-01-13T04:08:35.425Z,0
2017-01-13T04:09:35.764Z,0
2017-01-13T04:10:35.726Z,0
2017-01-13T04:11:35.305Z,0
2017-01-13T04:12:35.254Z,0
2017-01-13T04:13:35.211Z,0
2017-01-13T04:14:34.408Z,0
2017-01-13T04:15:35.131Z,0
2017-01-13T04:16:35.474Z,0
2017-01-13T04:17:35.051Z,0
2017-01-13T04:18:35.027Z,0
2017-01-13T04:19:34.966Z,0
2017-01-13T04:20:34.948Z,0
2017-01-13T04:21:35.279Z,0
2017-01-13T04:22:35.227Z,0
2017-01-13T04:23:34.413Z,0
2017-01-13T04:24:33.988Z,0
2017-01-13T04:25:33.939Z,0
2017-01-13T04:26:34.670Z,0
2017-01-13T04:27:35.017Z,0
2017-01-13T04:28:34.600Z,0
2017-01-13T04:29:34.933Z,0
2017-01-13T04:30:34.896Z,0
2017-01-13T04:31:34.856Z,0
2017-01-13T04:32:34.419Z,0
2017-01-13T04:33:34.383Z,0
2017-01-13T04:34:34.336Z,0
2017-01-13T04:35:34.688Z,0
2017-01-13T04:36:33.872Z,0
2017-01-13T04:37:34.614Z,0
2017-01-13T04:38:33.792Z,0
2017-01-13T04:39:34.515Z,0
2017-01-13T04:40:34.122Z,0
2017-01-13T04:41:34.427Z,0
2017-01-13T04:42:34.394Z,0
2017-01-13T04:43:33.963Z,0
2017-01-13T04:44:33.545Z,0
2017-01-13T04:45:33.874Z,0
2017-01-13T04:46:34.222Z,0
2017-01-13T04:47:34.179Z,0
2017-01-13T04:48:33.753Z,0
2017-01-13T04:49:33.710Z,0
2017-01-13T04:50:32.901Z,0
2017-01-13T04:51:33.629Z,0
2017-01-13T04:52:33.200Z,0
2017-01-13T04:53:33.934Z,0
2017-01-13T04:54:32.736Z,0
2017-01-13T04:55:33.864Z,0
2017-01-13T04:56:33.040Z,0
2017-01-13T04:57:33.386Z,0
2017-01-13T04:58:33.720Z,0
2017-01-13T04:59:33.291Z,0
2017-01-13T05:00:32.866Z,0
2017-01-13T05:01:33.621Z,0
2017-01-13T05:02:33.167Z,0
2017-01-13T05:03:33.508Z,0
2017-01-13T05:04:33.464Z,0
2017-01-13T05:05:33.432Z,0
2017-01-13T05:06:33.392Z,0
2017-01-13T05:07:33.340Z,0
2017-01-13T05:08:32.531Z,0
2017-01-13T05:09:32.867Z,0
2017-01-13T05:10:33.214Z,0
2017-01-13T05:11:32.413Z,0
2017-01-13T05:12:33.134Z,0
2017-01-13T05:13:33.092Z,0
2017-01-13T05:14:33.049Z,0
2017-01-13T05:15:32.236Z,0
2017-01-13T05:16:32.963Z,0
2017-01-13T05:17:32.177Z,0
2017-01-13T05:18:32.501Z,0
2017-01-13T05:19:32.455Z,0
2017-01-13T05:20:32.795Z,0
2017-01-13T05:21:32.364Z,0
2017-01-13T05:22:32.711Z,0
2017-01-13T05:23:31.893Z,0
2017-01-13T05:24:31.856Z,0
2017-01-13T05:25:32.586Z,0
2017-01-13T05:26:32.546Z,0
2017-01-13T05:27:32.143Z,0
2017-01-13T05:28:31.692Z,0
2017-01-13T05:29:31.642Z,0
2017-01-13T05:30:31.989Z,0
2017-01-13T05:31:32.356Z,0
2017-01-13T05:32:31.901Z,0
2017-01-13T05:33:32.250Z,0
2017-01-13T05:34:32.203Z,0
2017-01-13T05:35:32.175Z,0
2017-01-13T05:36:31.734Z,0
2017-01-13T05:37:31.692Z,0
2017-01-13T05:38:31.647Z,0
2017-01-13T05:39:31.995Z,0
2017-01-13T05:40:31.562Z,0
2017-01-13T05:41:31.142Z,0
2017-01-13T05:42:31.479Z,0
2017-01-13T05:43:31.442Z,0
2017-01-13T05:44:31.009Z,0
2017-01-13T05:45:31.740Z,0
2017-01-13T05:46:31.716Z,0
2017-01-13T05:47:30.889Z,0
2017-01-13T05:48:31.613Z,0
2017-01-13T05:49:31.570Z,0
2017-01-13T05:50:31.527Z,0
2017-01-13T05:51:31.105Z,0
2017-01-13T05:52:31.439Z,0
2017-01-13T05:53:31.014Z,0
2017-01-13T05:54:30.594Z,0
2017-01-13T05:55:30.547Z,0
2017-01-13T05:56:30.894Z,0
2017-01-13T05:57:30.848Z,0
2017-01-13T05:58:30.809Z,0
2017-01-13T05:59:30.763Z,0
2017-01-13T06:00:31.104Z,0
2017-01-13T06:01:30.691Z,0
2017-01-13T06:02:30.636Z,0
2017-01-13T06:03:30.989Z,0
2017-01-13T06:04:30.944Z,0
2017-01-13T06:05:30.509Z,0
2017-01-13T06:06:30.470Z,0
2017-01-13T06:07:30.429Z,0
2017-01-13T06:08:30.769Z,0
2017-01-13T06:09:30.337Z,0
2017-01-13T06:10:30.299Z,0
2017-01-13T06:11:30.261Z,0
2017-01-13T06:12:30.597Z,0
2017-01-13T06:13:30.560Z,0
2017-01-13T06:14:30.514Z,0
2017-01-13T06:15:30.087Z,0
2017-01-13T06:16:30.045Z,0
2017-01-13T06:17:30.008Z,0
2017-01-13T06:18:29.963Z,0
2017-01-13T06:19:29.922Z,0
2017-01-13T06:20:30.263Z,0
2017-01-13T06:21:29.836Z,0
2017-01-13T06:22:29.805Z,0
2017-01-13T06:23:29.754Z,0
2017-01-13T06:24:29.322Z,0
2017-01-13T06:25:29.284Z,0
2017-01-13T06:26:30.005Z,0
2017-01-13T06:27:28.816Z,0
2017-01-13T06:28:29.543Z,0
2017-01-13T06:29:29.528Z,0
2017-01-13T06:30:29.844Z,0
2017-01-13T06:31:29.831Z,0
2017-01-13T06:32:29.755Z,0
2017-01-13T06:33:29.352Z,0
2017-01-13T06:34:29.673Z,0
2017-01-13T06:35:29.629Z,0
2017-01-13T06:36:29.599Z,0
2017-01-13T06:37:29.160Z,0
2017-01-13T06:38:29.117Z,0
2017-01-13T06:39:29.077Z,0
2017-01-13T06:40:29.417Z,0
2017-01-13T06:41:28.606Z,0
2017-01-13T06:42:29.339Z,0
2017-01-13T06:43:28.520Z,0
2017-01-13T06:44:29.246Z,0
2017-01-13T06:45:28.839Z,0
2017-01-13T06:46:28.782Z,0
2017-01-13T06:47:28.357Z,0
2017-01-13T06:48:28.305Z,0
2017-01-13T06:49:28.655Z,0
2017-01-13T06:50:28.991Z,0
2017-01-13T06:51:28.955Z,0
2017-01-13T06:52:28.138Z,0
2017-01-13T06:53:28.477Z,0
2017-01-13T06:54:28.829Z,0
2017-01-13T06:55:28.017Z,0
2017-01-13T06:56:28.360Z,0
2017-01-13T06:57:28.309Z,0
2017-01-13T06:58:28.657Z,0
2017-01-13T06:59:28.613Z,0
2017-01-13T07:00:28.180Z,0
2017-01-13T07:01:28.533Z,0
2017-01-13T07:02:28.096Z,0
2017-01-13T07:03:28.439Z,0
2017-01-13T07:04:28.407Z,0
2017-01-13T07:05:27.971Z,0
2017-01-13T07:06:28.324Z,0
2017-01-13T07:07:27.499Z,0
2017-01-13T07:08:28.251Z,0
2017-01-13T07:09:27.034Z,0
2017-01-13T07:10:27.766Z,0
2017-01-13T07:11:27.727Z,0
2017-01-13T07:12:28.063Z,0
2017-01-13T07:13:27.634Z,0
2017-01-13T07:14:27.976Z,0
2017-01-13T07:15:27.162Z,5
2017-01-13T07:16:27.893Z,5
2017-01-13T07:17:27.469Z,5
2017-01-13T07:18:27.811Z,5
2017-01-13T07:19:27.391Z,5
2017-01-13T07:20:27.336Z,5
2017-01-13T07:21:26.941Z,5
2017-01-13T07:22:26.880Z,5
2017-01-13T07:23:27.212Z,5
2017-01-13T07:24:26.780Z,5
2017-01-13T07:25:27.134Z,5
2017-01-13T07:26:27.471Z,5
2017-01-13T07:27:27.043Z,5
2017-01-13T07:28:27.381Z,5
2017-01-13T07:29:27.346Z,5
2017-01-13T07:30:26.141Z,5
2017-01-13T07:31:26.103Z,5
2017-01-13T07:32:26.832Z,10
2017-01-13T07:33:26.796Z,10
2017-01-13T07:34:26.746Z,10
2017-01-13T07:35:26.704Z,10
2017-01-13T07:36:26.670Z,10
2017-01-13T07:37:26.238Z,10
2017-01-13T07:38:26.990Z,10
2017-01-13T07:39:26.536Z,10
2017-01-13T07:40:26.884Z,10
2017-01-13T07:41:26.843Z,15
2017-01-13T07:42:26.408Z,15
2017-01-13T07:43:26.757Z,20
2017-01-13T07:44:25.975Z,20
2017-01-13T07:45:26.672Z,20
2017-01-13T07:46:26.248Z,20
2017-01-13T07:47:26.594Z,25
2017-01-13T07:48:25.389Z,25
2017-01-13T07:49:26.113Z,25
2017-01-13T07:50:25.303Z,35
2017-01-13T07:51:26.037Z,40
2017-01-13T07:52:25.990Z,45
2017-01-13T07:53:26.342Z,50
2017-01-13T07:54:25.533Z,50
2017-01-13T07:55:26.241Z,55
2017-01-13T07:56:26.209Z,55
2017-01-13T07:57:26.168Z,55
2017-01-13T07:58:26.117Z,60
2017-01-13T07:59:25.311Z,60
2017-01-13T08:00:25.263Z,60
2017-01-13T08:01:25.613Z,65
2017-01-13T08:02:25.192Z,65
2017-01-13T08:03:25.913Z,65
2017-01-13T08:04:25.869Z,60
2017-01-13T08:05:25.829Z,60
2017-01-13T08:06:25.784Z,60
2017-01-13T08:07:25.356Z,65
2017-01-13T08:08:24.936Z,70
2017-01-13T08:09:25.661Z,75
2017-01-13T08:10:25.626Z,80
2017-01-13T08:11:25.575Z,85
2017-01-13T08:12:25.150Z,85
2017-01-13T08:13:25.489Z,95
2017-01-13T08:14:25.451Z,85
2017-01-13T08:15:25.055Z,90
2017-01-13T08:16:24.591Z,95
2017-01-13T08:17:25.330Z,100
2017-01-13T08:18:25.308Z,100
2017-01-13T08:19:24.853Z,100
2017-01-13T08:20:25.200Z,95
2017-01-13T08:21:24.772Z,90
2017-01-13T08:22:25.115Z,90
2017-01-13T08:23:24.297Z,85
2017-01-13T08:24:24.253Z,90
2017-01-13T08:25:24.603Z,90
2017-01-13T08:27:26.024Z,90
2017-01-13T08:28:24.471Z,90
2017-01-13T08:29:24.438Z,90
2017-01-13T08:30:24.391Z,85
2017-01-13T08:31:23.968Z,80
2017-01-13T08:32:24.314Z,75
2017-01-13T08:33:24.267Z,70
2017-01-13T08:34:24.605Z,65
2017-01-13T08:35:24.564Z,65
2017-01-13T08:36:24.142Z,60
2017-01-13T08:37:23.713Z,60
2017-01-13T08:38:23.286Z,60
2017-01-13T08:39:24.401Z,65
2017-01-13T08:40:23.972Z,70
2017-01-13T08:41:23.935Z,70
2017-01-13T08:42:23.526Z,75
2017-01-13T08:43:23.465Z,80
2017-01-13T08:44:23.421Z,80
2017-01-13T08:45:23.762Z,80
2017-01-13T08:46:24.108Z,80
2017-01-13T08:47:23.676Z,80
2017-01-13T08:48:24.019Z,85
2017-01-13T08:49:23.594Z,85
2017-01-13T08:50:23.937Z,90
2017-01-13T08:51:23.505Z,90
2017-01-13T08:52:23.468Z,95
2017-01-13T08:53:23.424Z,100
2017-01-13T08:54:22.998Z,100
2017-01-13T08:55:23.339Z,100
2017-01-13T08:56:22.914Z,100
2017-01-13T08:57:23.640Z,105
2017-01-13T08:58:23.599Z,105
2017-01-13T08:59:23.200Z,110
2017-01-13T09:00:23.127Z,115
2017-01-13T09:01:23.093Z,120
2017-01-13T09:02:22.660Z,125
2017-01-13T09:03:23.009Z,125
2017-01-13T09:04:23.346Z,130
2017-01-13T09:05:22.531Z,135
2017-01-13T09:06:22.876Z,135
2017-01-13T09:07:22.831Z,135
2017-01-13T09:08:22.785Z,140
2017-01-13T09:09:22.749Z,150
2017-01-13T09:10:22.320Z,155
2017-01-13T09:11:23.074Z,165
2017-01-13T09:12:22.237Z,170
2017-01-13T09:13:22.586Z,175
2017-01-13T09:14:22.155Z,175
2017-01-13T09:15:22.503Z,175
2017-01-13T09:16:23.335Z,170
2017-01-13T09:17:22.414Z,170
2017-01-13T09:18:22.376Z,170
2017-01-13T09:19:22.328Z,175
2017-01-13T09:20:22.669Z,165
2017-01-13T09:21:24.057Z,150
2017-01-13T09:22:21.818Z,145
2017-01-13T09:23:21.392Z,140
2017-01-13T09:24:22.509Z,135
2017-01-13T09:25:22.482Z,125
2017-01-13T09:26:22.040Z,125
2017-01-13T09:27:22.377Z,120
2017-01-13T09:28:21.953Z,125
2017-01-13T09:29:22.295Z,120
2017-01-13T09:30:22.255Z,115
2017-01-13T09:31:22.215Z,110
2017-01-13T09:32:22.179Z,95
2017-01-13T09:33:21.741Z,85
2017-01-13T09:34:21.705Z,85
2017-01-13T09:35:21.669Z,80
2017-01-13T09:36:21.623Z,75
2017-01-13T09:37:21.962Z,75
2017-01-13T09:38:21.921Z,80
2017-01-13T09:39:21.115Z,75
2017-01-13T09:40:21.454Z,60
2017-01-13T09:41:21.843Z,55
2017-01-13T09:42:21.373Z,55
2017-01-13T09:43:21.337Z,50
2017-01-13T09:44:21.668Z,50
2017-01-13T09:45:21.635Z,50
2017-01-13T09:46:21.202Z,55
2017-01-13T09:47:21.550Z,70
2017-01-13T09:48:21.547Z,65
2017-01-13T09:49:20.697Z,65
2017-01-13T09:50:20.684Z,70
2017-01-13T09:51:21.385Z,80
2017-01-13T09:52:20.575Z,85
2017-01-13T09:53:20.529Z,65
2017-01-13T09:54:20.873Z,75
2017-01-13T09:55:21.215Z,70
2017-01-13T09:56:20.439Z,65
2017-01-13T09:57:21.132Z,75
2017-01-13T09:58:21.094Z,90
2017-01-13T09:59:21.052Z,125
2017-01-13T10:00:20.236Z,145
2017-01-13T10:01:20.576Z,160
2017-01-13T10:02:20.922Z,165
2017-01-13T10:03:20.499Z,165
2017-01-13T10:04:20.875Z,155
2017-01-13T10:05:20.411Z,165
2017-01-13T10:06:20.371Z,180
2017-01-13T10:07:20.328Z,195
2017-01-13T10:08:19.513Z,210
2017-01-13T10:09:20.246Z,225
2017-01-13T10:10:20.607Z,235
2017-01-13T10:11:20.173Z,245
2017-01-13T10:12:20.123Z,255
2017-01-13T10:13:20.084Z,255
2017-01-13T10:14:19.663Z,265
2017-01-13T10:15:20.381Z,265
2017-01-13T10:16:19.573Z,270
2017-01-13T10:17:19.911Z,295
2017-01-13T10:18:19.878Z,265
2017-01-13T10:19:19.829Z,265
2017-01-13T10:20:20.182Z,255
2017-01-13T10:21:19.752Z,250
2017-01-13T10:22:20.099Z,235
2017-01-13T10:23:19.682Z,240
2017-01-13T10:24:20.014Z,250
2017-01-13T10:25:19.588Z,240
2017-01-13T10:26:19.161Z,235
2017-01-13T10:27:19.506Z,230
2017-01-13T10:28:19.472Z,230
2017-01-13T10:29:19.808Z,205
2017-01-13T10:30:18.998Z,205
2017-01-13T10:31:19.731Z,220
2017-01-13T10:32:18.919Z,210
2017-01-13T10:33:18.879Z,200
2017-01-13T10:34:19.227Z,220
2017-01-13T10:35:18.795Z,195
2017-01-13T10:36:18.759Z,260
2017-01-13T10:37:19.125Z,235
2017-01-13T10:38:19.061Z,245
2017-01-13T10:39:18.633Z,410
2017-01-13T10:40:18.978Z,435
2017-01-13T10:41:18.948Z,740
2017-01-13T10:42:19.285Z,715
2017-01-13T10:43:18.882Z,610
2017-01-13T10:44:18.818Z,635
2017-01-13T10:45:19.169Z,585
2017-01-13T10:46:18.742Z,495
2017-01-13T10:47:18.312Z,390
2017-01-13T10:48:18.276Z,375
2017-01-13T10:49:19.005Z,405
2017-01-13T10:50:18.579Z,465
2017-01-13T10:51:18.156Z,450
2017-01-13T10:52:18.505Z,410
2017-01-13T10:53:18.849Z,405
2017-01-13T10:54:18.035Z,430
2017-01-13T10:55:18.027Z,430
2017-01-13T10:56:18.738Z,425
2017-01-13T10:57:18.304Z,400
2017-01-13T10:58:18.267Z,430
2017-01-13T10:59:18.618Z,425
2017-01-13T11:00:17.424Z,415
2017-01-13T11:01:17.380Z,420
2017-01-13T11:02:18.504Z,455
2017-01-13T11:03:18.464Z,480
2017-01-13T11:04:18.427Z,495
2017-01-13T11:05:18.387Z,450
2017-01-13T11:06:18.363Z,450
2017-01-13T11:07:17.159Z,455
2017-01-13T11:08:18.278Z,375
2017-01-13T11:09:17.507Z,485
2017-01-13T11:10:18.203Z,460
2017-01-13T11:11:18.170Z,295
2017-01-13T11:12:17.743Z,285
2017-01-13T11:13:17.709Z,300
2017-01-13T11:14:17.676Z,360
2017-01-13T11:15:17.635Z,260
2017-01-13T11:16:17.599Z,235
2017-01-13T11:17:17.949Z,195
2017-01-13T11:18:17.525Z,175
2017-01-13T11:19:17.875Z,165
2017-01-13T11:20:17.450Z,160
2017-01-13T11:21:17.037Z,155
2017-01-13T11:22:17.383Z,160
2017-01-13T11:23:16.959Z,170
2017-01-13T11:24:17.305Z,140
2017-01-13T11:25:16.883Z,140
2017-01-13T11:26:17.244Z,130
2017-01-13T11:27:17.570Z,130
2017-01-13T11:28:17.153Z,140
2017-01-13T11:29:17.111Z,125
2017-01-13T11:30:17.460Z,115
2017-01-13T11:31:16.661Z,105
2017-01-13T11:32:17.376Z,100
2017-01-13T11:33:16.964Z,100
2017-01-13T11:34:17.303Z,100
2017-01-13T11:35:17.279Z,105
2017-01-13T11:36:17.243Z,100
2017-01-13T11:37:16.453Z,95
2017-01-13T11:38:16.766Z,105
2017-01-13T11:39:17.107Z,145
2017-01-13T11:40:16.713Z,160
2017-01-13T11:41:16.648Z,155
2017-01-13T11:42:16.607Z,150
2017-01-13T11:43:16.954Z,175
2017-01-13T11:44:16.534Z,200
2017-01-13T11:45:16.876Z,200
2017-01-13T11:46:16.848Z,210
2017-01-13T11:47:16.802Z,230
2017-01-13T11:48:16.758Z,215
2017-01-13T11:49:15.944Z,205
2017-01-13T11:50:16.674Z,195
2017-01-13T11:51:16.247Z,185
2017-01-13T11:52:16.593Z,180
2017-01-13T11:53:16.174Z,140
2017-01-13T11:54:16.134Z,115
2017-01-13T11:55:15.749Z,110
2017-01-13T11:56:16.057Z,105
2017-01-13T11:57:16.398Z,100
2017-01-13T11:58:15.967Z,105
2017-01-13T11:59:16.320Z,100
2017-01-13T12:00:15.889Z,85
2017-01-13T12:01:15.852Z,65
2017-01-13T12:02:15.057Z,60
2017-01-13T12:03:15.801Z,55
2017-01-13T12:04:15.737Z,60
2017-01-13T12:05:15.303Z,55
2017-01-13T12:06:15.267Z,50
2017-01-13T12:07:15.619Z,55
2017-01-13T12:08:15.576Z,60
2017-01-13T12:09:15.150Z,60
2017-01-13T12:10:15.487Z,70
2017-01-13T12:11:15.062Z,75
2017-01-13T12:12:15.026Z,70
2017-01-13T12:13:14.990Z,70
2017-01-13T12:14:15.331Z,75
2017-01-13T12:15:15.683Z,80
2017-01-13T12:16:14.855Z,85
2017-01-13T12:17:14.818Z,90
2017-01-13T12:18:15.547Z,95
2017-01-13T12:19:15.124Z,105
2017-01-13T12:20:15.466Z,115
2017-01-13T12:21:15.425Z,125
2017-01-13T12:22:14.998Z,130
2017-01-13T12:23:14.576Z,130
2017-01-13T12:24:14.538Z,130
2017-01-13T12:25:14.877Z,135
2017-01-13T12:26:15.227Z,130
2017-01-13T12:27:14.028Z,140
2017-01-13T12:28:14.826Z,140
2017-01-13T12:29:13.949Z,155
2017-01-13T12:30:14.289Z,175
2017-01-13T12:31:14.632Z,180
2017-01-13T12:32:14.997Z,175
2017-01-13T12:33:14.548Z,180
2017-01-13T12:34:14.509Z,185
2017-01-13T12:35:14.881Z,195
2017-01-13T12:36:14.049Z,200
2017-01-13T12:37:14.391Z,220
2017-01-13T12:38:14.359Z,220
2017-01-13T12:39:14.307Z,190
2017-01-13T12:40:14.654Z,185
2017-01-13T12:41:14.609Z,195
2017-01-13T12:42:13.798Z,185
2017-01-13T12:43:13.375Z,195
2017-01-13T12:44:14.491Z,205
2017-01-13T12:45:13.701Z,200
2017-01-13T12:46:14.033Z,200
2017-01-13T12:47:13.611Z,195
2017-01-13T12:48:14.325Z,200
2017-01-13T12:49:13.516Z,190
2017-01-13T12:50:13.861Z,205
2017-01-13T12:51:14.201Z,225
2017-01-13T12:52:14.164Z,245
2017-01-13T12:53:13.744Z,250
2017-01-13T12:54:13.315Z,240
2017-01-13T12:55:13.265Z,220
2017-01-13T12:56:13.614Z,185
2017-01-13T12:57:13.965Z,155
2017-01-13T12:58:13.547Z,135
2017-01-13T12:59:13.906Z,110
2017-01-13T13:00:13.455Z,100
2017-01-13T13:01:13.805Z,70
2017-01-13T13:02:13.758Z,45
2017-01-13T13:03:12.946Z,40
2017-01-13T13:04:12.905Z,20
2017-01-13T13:05:13.250Z,10
2017-01-13T13:06:13.214Z,15
2017-01-13T13:07:13.558Z,20
2017-01-13T13:08:12.790Z,25
2017-01-13T13:09:13.099Z,35
2017-01-13T13:10:13.055Z,45
2017-01-13T13:11:13.406Z,55
2017-01-13T13:12:12.978Z,60
2017-01-13T13:13:12.552Z,65
2017-01-13T13:14:13.280Z,65
2017-01-13T13:15:12.462Z,65
2017-01-13T13:16:12.436Z,60
2017-01-13T13:17:12.776Z,60
2017-01-13T13:18:12.344Z,55
2017-01-13T13:19:12.299Z,55
2017-01-13T13:20:13.049Z,55
2017-01-13T13:21:12.607Z,55
2017-01-13T13:22:12.594Z,50
2017-01-13T13:23:12.527Z,50
2017-01-13T13:24:12.489Z,55
2017-01-13T13:25:12.047Z,55
2017-01-13T13:26:12.017Z,55
2017-01-13T13:27:12.749Z,55
2017-01-13T13:28:12.322Z,50
2017-01-13T13:29:11.892Z,50
2017-01-13T13:30:12.643Z,45
2017-01-13T13:31:12.201Z,45
2017-01-13T13:32:12.168Z,40
2017-01-13T13:33:12.493Z,45
2017-01-13T13:34:12.094Z,45
2017-01-13T13:35:12.417Z,50
2017-01-13T13:36:12.379Z,50
2017-01-13T13:37:11.944Z,50
2017-01-13T13:38:12.288Z,50
2017-01-13T13:39:11.859Z,50
2017-01-13T13:40:12.203Z,50
2017-01-13T13:41:12.174Z,50
2017-01-13T13:42:12.124Z,55
2017-01-13T13:43:11.325Z,55
2017-01-13T13:44:12.067Z,55
2017-01-13T13:45:11.643Z,50
2017-01-13T13:46:11.957Z,50
2017-01-13T13:47:11.151Z,50
2017-01-13T13:48:11.487Z,50
2017-01-13T13:49:11.825Z,50
2017-01-13T13:50:11.398Z,50
2017-01-13T13:51:11.364Z,50
2017-01-13T13:52:10.926Z,50
2017-01-13T13:53:10.894Z,55
2017-01-13T13:54:11.619Z,55
2017-01-13T13:55:11.576Z,60
2017-01-13T13:56:10.768Z,70
2017-01-13T13:57:11.108Z,70
2017-01-13T13:58:10.679Z,70
2017-01-13T13:59:11.017Z,65
2017-01-13T14:00:10.985Z,65
2017-01-13T14:01:11.320Z,75
2017-01-13T14:02:10.904Z,65
2017-01-13T14:03:10.852Z,65
2017-01-13T14:04:10.814Z,70
2017-01-13T14:05:11.153Z,65
2017-01-13T14:06:10.721Z,65
2017-01-13T14:07:10.678Z,75
2017-01-13T14:08:10.645Z,80
2017-01-13T14:09:10.599Z,80
2017-01-13T14:10:10.558Z,85
2017-01-13T14:11:10.535Z,85
2017-01-13T14:12:10.468Z,90
2017-01-13T14:13:09.657Z,90
2017-01-13T14:14:10.773Z,90
2017-01-13T14:15:09.963Z,90
2017-01-13T14:16:09.928Z,95
2017-01-13T14:17:09.490Z,95
2017-01-13T14:18:10.214Z,95
2017-01-13T14:19:10.175Z,95
2017-01-13T14:20:10.512Z,100
2017-01-13T14:21:10.090Z,95
2017-01-13T14:22:09.678Z,95
2017-01-13T14:23:10.004Z,100
2017-01-13T14:24:10.349Z,100
2017-01-13T14:25:09.954Z,95